sensor_id;sensor_type;location;lat;lon;timestamp;pressure;altitude;pressure_sealevel;temperature;humidity
54900;BME280;40801;41.924;25.562;2023-01-28T00:01:15;98799.38;;;3.87;82.59
54900;BME280;40801;41.924;25.562;2023-01-28T00:03:41;98807.34;;;3.92;82.30
54900;BME280;40801;41.924;25.562;2023-01-28T00:06:16;98812.16;;;3.90;82.63
54900;BME280;40801;41.924;25.562;2023-01-28T00:08:43;98802.44;;;3.60;83.93
54900;BME280;40801;41.924;25.562;2023-01-28T00:11:10;98811.13;;;3.86;82.68
54900;BME280;40801;41.924;25.562;2023-01-28T00:13:36;98811.06;;;3.96;81.97
54900;BME280;40801;41.924;25.562;2023-01-28T00:16:04;98809.78;;;3.84;81.69
54900;BME280;40801;41.924;25.562;2023-01-28T00:18:31;98816.16;;;3.88;82.33
54900;BME280;40801;41.924;25.562;2023-01-28T00:21:01;98817.47;;;3.95;82.09
54900;BME280;40801;41.924;25.562;2023-01-28T00:23:28;98816.84;;;3.54;83.60
54900;BME280;40801;41.924;25.562;2023-01-28T00:25:53;98816.84;;;3.54;84.23
54900;BME280;40801;41.924;25.562;2023-01-28T00:28:20;98826.69;;;3.64;83.53
54900;BME280;40801;41.924;25.562;2023-01-28T00:30:46;98825.97;;;3.38;84.07
54900;BME280;40801;41.924;25.562;2023-01-28T00:33:11;98824.41;;;3.22;84.70
54900;BME280;40801;41.924;25.562;2023-01-28T00:35:37;98825.44;;;3.36;84.44
54900;BME280;40801;41.924;25.562;2023-01-28T00:38:02;98835.31;;;3.30;84.82
54900;BME280;40801;41.924;25.562;2023-01-28T00:40:28;98837.91;;;3.46;83.79
54900;BME280;40801;41.924;25.562;2023-01-28T00:42:54;98838.72;;;3.46;83.69
54900;BME280;40801;41.924;25.562;2023-01-28T00:45:19;98837.13;;;3.50;83.78
54900;BME280;40801;41.924;25.562;2023-01-28T00:47:44;98841.84;;;3.68;83.74
54900;BME280;40801;41.924;25.562;2023-01-28T00:50:10;98842.66;;;3.64;83.16
54900;BME280;40801;41.924;25.562;2023-01-28T00:52:35;98844.59;;;3.48;83.93
54900;BME280;40801;41.924;25.562;2023-01-28T00:55:01;98846.41;;;3.63;83.00
54900;BME280;40801;41.924;25.562;2023-01-28T00:57:26;98859.78;;;3.53;83.87
54900;BME280;40801;41.924;25.562;2023-01-28T00:59:52;98860.00;;;3.66;83.12
54900;BME280;40801;41.924;25.562;2023-01-28T01:02:17;98856.28;;;3.62;82.73
54900;BME280;40801;41.924;25.562;2023-01-28T01:04:43;98858.13;;;3.62;82.94
54900;BME280;40801;41.924;25.562;2023-01-28T01:07:20;98863.97;;;3.79;82.17
54900;BME280;40801;41.924;25.562;2023-01-28T01:09:46;98857.31;;;3.71;82.05
54900;BME280;40801;41.924;25.562;2023-01-28T01:12:11;98865.88;;;3.63;82.43
54900;BME280;40801;41.924;25.562;2023-01-28T01:14:37;98865.56;;;3.70;82.31
54900;BME280;40801;41.924;25.562;2023-01-28T01:17:02;98869.56;;;3.72;82.36
54900;BME280;40801;41.924;25.562;2023-01-28T01:19:28;98870.88;;;3.80;81.93
54900;BME280;40801;41.924;25.562;2023-01-28T01:21:55;98878.38;;;3.78;81.91
54900;BME280;40801;41.924;25.562;2023-01-28T01:24:20;98867.41;;;3.85;81.84
54900;BME280;40801;41.924;25.562;2023-01-28T01:26:46;98873.03;;;3.73;81.80
54900;BME280;40801;41.924;25.562;2023-01-28T01:29:11;98878.16;;;3.54;82.85
54900;BME280;40801;41.924;25.562;2023-01-28T01:31:37;98874.41;;;3.60;81.96
54900;BME280;40801;41.924;25.562;2023-01-28T01:34:02;98882.38;;;3.65;81.98
54900;BME280;40801;41.924;25.562;2023-01-28T01:36:28;98880.25;;;3.67;81.40
54900;BME280;40801;41.924;25.562;2023-01-28T01:38:53;98883.72;;;3.68;81.39
54900;BME280;40801;41.924;25.562;2023-01-28T01:41:31;98882.63;;;3.69;81.73
54900;BME280;40801;41.924;25.562;2023-01-28T01:44:02;98884.25;;;3.70;81.53
54900;BME280;40801;41.924;25.562;2023-01-28T01:46:44;98883.16;;;3.71;82.10
54900;BME280;40801;41.924;25.562;2023-01-28T01:49:22;98894.09;;;3.74;81.53
54900;BME280;40801;41.924;25.562;2023-01-28T01:51:51;98883.97;;;3.77;81.05
54900;BME280;40801;41.924;25.562;2023-01-28T01:54:19;98883.72;;;3.63;81.60
54900;BME280;40801;41.924;25.562;2023-01-28T01:56:49;98886.38;;;3.68;81.68
54900;BME280;40801;41.924;25.562;2023-01-28T01:59:19;98889.31;;;3.66;81.90
54900;BME280;40801;41.924;25.562;2023-01-28T02:01:46;98877.59;;;3.62;81.90
54900;BME280;40801;41.924;25.562;2023-01-28T02:04:22;98889.84;;;3.68;81.45
54900;BME280;40801;41.924;25.562;2023-01-28T02:06:49;98894.63;;;3.82;81.06
54900;BME280;40801;41.924;25.562;2023-01-28T02:11:54;98893.63;;;3.57;82.11
54900;BME280;40801;41.924;25.562;2023-01-28T02:14:22;98897.31;;;3.66;82.04
54900;BME280;40801;41.924;25.562;2023-01-28T02:16:49;98904.75;;;3.74;81.74
54900;BME280;40801;41.924;25.562;2023-01-28T02:19:15;98905.81;;;3.73;81.39
54900;BME280;40801;41.924;25.562;2023-01-28T02:22:20;98910.38;;;3.68;81.69
54900;BME280;40801;41.924;25.562;2023-01-28T02:25:10;98911.16;;;3.73;82.24
54900;BME280;40801;41.924;25.562;2023-01-28T02:30:35;98919.16;;;3.73;82.30
54900;BME280;40801;41.924;25.562;2023-01-28T02:33:08;98922.91;;;3.67;82.14
54900;BME280;40801;41.924;25.562;2023-01-28T02:38:11;98932.78;;;3.77;81.48
54900;BME280;40801;41.924;25.562;2023-01-28T02:40:41;98931.44;;;3.80;81.74
54900;BME280;40801;41.924;25.562;2023-01-28T02:43:43;98926.59;;;3.87;81.31
54900;BME280;40801;41.924;25.562;2023-01-28T02:49:09;98924.50;;;3.68;81.31
54900;BME280;40801;41.924;25.562;2023-01-28T02:51:44;98922.91;;;3.67;81.51
54900;BME280;40801;41.924;25.562;2023-01-28T02:54:34;98923.19;;;3.76;80.58
54900;BME280;40801;41.924;25.562;2023-01-28T02:59:50;98928.75;;;3.74;81.20
54900;BME280;40801;41.924;25.562;2023-01-28T03:02:49;98925.84;;;3.71;80.89
54900;BME280;40801;41.924;25.562;2023-01-28T03:07:47;98939.19;;;3.61;81.62
54900;BME280;40801;41.924;25.562;2023-01-28T03:10:16;98946.16;;;3.41;82.13
54900;BME280;40801;41.924;25.562;2023-01-28T03:12:43;98938.97;;;3.47;81.98
54900;BME280;40801;41.924;25.562;2023-01-28T03:15:34;98944.84;;;3.24;82.94
54900;BME280;40801;41.924;25.562;2023-01-28T03:18:31;98937.38;;;3.26;83.37
54900;BME280;40801;41.924;25.562;2023-01-28T03:21:24;98946.94;;;3.42;82.59
54900;BME280;40801;41.924;25.562;2023-01-28T03:24:15;98941.88;;;3.46;82.67
54900;BME280;40801;41.924;25.562;2023-01-28T03:30:14;98951.47;;;3.62;81.59
54900;BME280;40801;41.924;25.562;2023-01-28T03:33:00;98950.97;;;3.50;82.13
54900;BME280;40801;41.924;25.562;2023-01-28T03:35:45;98949.59;;;3.57;81.72
54900;BME280;40801;41.924;25.562;2023-01-28T03:38:29;98954.69;;;3.54;82.36
54900;BME280;40801;41.924;25.562;2023-01-28T03:41:01;98953.31;;;3.61;82.06
54900;BME280;40801;41.924;25.562;2023-01-28T03:43:28;98945.31;;;3.61;82.07
54900;BME280;40801;41.924;25.562;2023-01-28T03:45:54;98950.13;;;3.59;81.75
54900;BME280;40801;41.924;25.562;2023-01-28T03:48:25;98946.94;;;3.57;82.01
54900;BME280;40801;41.924;25.562;2023-01-28T03:50:52;98953.31;;;3.61;81.65
54900;BME280;40801;41.924;25.562;2023-01-28T03:53:18;98949.06;;;3.60;81.77
54900;BME280;40801;41.924;25.562;2023-01-28T03:55:46;98948.00;;;3.61;81.64
54900;BME280;40801;41.924;25.562;2023-01-28T03:58:12;98949.84;;;3.61;81.97
54900;BME280;40801;41.924;25.562;2023-01-28T04:00:38;98955.19;;;3.66;81.46
54900;BME280;40801;41.924;25.562;2023-01-28T04:03:15;98952.25;;;3.62;81.33
54900;BME280;40801;41.924;25.562;2023-01-28T04:08:07;98954.38;;;3.70;81.43
54900;BME280;40801;41.924;25.562;2023-01-28T04:10:33;98957.28;;;3.74;81.57
54900;BME280;40801;41.924;25.562;2023-01-28T04:12:58;98955.44;;;3.64;81.31
54900;BME280;40801;41.924;25.562;2023-01-28T04:15:24;98957.34;;;3.59;81.67
54900;BME280;40801;41.924;25.562;2023-01-28T04:17:49;98963.72;;;3.63;82.09
54900;BME280;40801;41.924;25.562;2023-01-28T04:20:15;98966.66;;;3.77;80.94
54900;BME280;40801;41.924;25.562;2023-01-28T04:22:40;98973.84;;;3.76;81.20
54900;BME280;40801;41.924;25.562;2023-01-28T04:25:06;98977.03;;;3.73;80.80
54900;BME280;40801;41.924;25.562;2023-01-28T04:27:32;98978.63;;;3.74;81.12
54900;BME280;40801;41.924;25.562;2023-01-28T04:29:57;98979.97;;;3.66;81.38
54900;BME280;40801;41.924;25.562;2023-01-28T04:32:23;98982.91;;;3.60;81.06
54900;BME280;40801;41.924;25.562;2023-01-28T04:34:48;98986.91;;;3.67;81.48
54900;BME280;40801;41.924;25.562;2023-01-28T04:37:13;98983.97;;;3.64;81.91
54900;BME280;40801;41.924;25.562;2023-01-28T04:39:39;98986.09;;;3.72;80.92
54900;BME280;40801;41.924;25.562;2023-01-28T04:42:04;98990.34;;;3.83;80.58
54900;BME280;40801;41.924;25.562;2023-01-28T04:44:30;98990.09;;;3.85;80.78
54900;BME280;40801;41.924;25.562;2023-01-28T04:46:55;98983.44;;;3.82;80.71
54900;BME280;40801;41.924;25.562;2023-01-28T04:49:20;98996.50;;;3.84;80.29
54900;BME280;40801;41.924;25.562;2023-01-28T04:51:46;98990.63;;;3.71;81.29
54900;BME280;40801;41.924;25.562;2023-01-28T04:54:11;98990.34;;;3.83;80.41
54900;BME280;40801;41.924;25.562;2023-01-28T04:56:36;98985.03;;;3.68;81.20
54900;BME280;40801;41.924;25.562;2023-01-28T04:59:02;98993.03;;;3.73;80.68
54900;BME280;40801;41.924;25.562;2023-01-28T05:01:28;98998.13;;;3.44;81.32
54900;BME280;40801;41.924;25.562;2023-01-28T05:03:53;99001.06;;;3.42;81.56
54900;BME280;40801;41.924;25.562;2023-01-28T05:06:19;99000.78;;;3.39;82.15
54900;BME280;40801;41.924;25.562;2023-01-28T05:08:44;99004.78;;;3.47;81.62
54900;BME280;40801;41.924;25.562;2023-01-28T05:11:11;99008.78;;;3.54;81.56
54900;BME280;40801;41.924;25.562;2023-01-28T05:13:37;99007.72;;;3.55;80.89
54900;BME280;40801;41.924;25.562;2023-01-28T05:16:02;99019.97;;;3.61;81.58
54900;BME280;40801;41.924;25.562;2023-01-28T05:18:28;99024.50;;;3.71;80.90
54900;BME280;40801;41.924;25.562;2023-01-28T05:20:53;99028.50;;;3.68;80.23
54900;BME280;40801;41.924;25.562;2023-01-28T05:23:19;99029.81;;;3.86;80.40
54900;BME280;40801;41.924;25.562;2023-01-28T05:25:44;99034.09;;;3.72;80.60
54900;BME280;40801;41.924;25.562;2023-01-28T05:28:10;99033.84;;;3.79;80.48
54900;BME280;40801;41.924;25.562;2023-01-28T05:30:36;99033.84;;;3.79;80.24
54900;BME280;40801;41.924;25.562;2023-01-28T05:33:02;99034.38;;;3.81;80.15
54900;BME280;40801;41.924;25.562;2023-01-28T05:35:27;99037.81;;;3.86;80.18
54900;BME280;40801;41.924;25.562;2023-01-28T05:37:53;99036.22;;;3.90;79.70
54900;BME280;40801;41.924;25.562;2023-01-28T05:40:18;99039.97;;;3.84;79.60
54900;BME280;40801;41.924;25.562;2023-01-28T05:42:44;99044.75;;;3.92;79.96
54900;BME280;40801;41.924;25.562;2023-01-28T05:45:09;99046.34;;;3.93;79.54
54900;BME280;40801;41.924;25.562;2023-01-28T05:47:35;99046.59;;;4.02;79.47
54900;BME280;40801;41.924;25.562;2023-01-28T05:50:00;99047.94;;;3.99;79.87
54900;BME280;40801;41.924;25.562;2023-01-28T05:52:26;99041.25;;;4.02;79.69
54900;BME280;40801;41.924;25.562;2023-01-28T05:54:51;99044.44;;;4.04;79.41
54900;BME280;40801;41.924;25.562;2023-01-28T05:57:17;99050.59;;;4.04;79.10
54900;BME280;40801;41.924;25.562;2023-01-28T05:59:42;99059.41;;;4.05;79.19
54900;BME280;40801;41.924;25.562;2023-01-28T06:02:08;99058.59;;;3.99;79.54
54900;BME280;40801;41.924;25.562;2023-01-28T06:04:33;99050.63;;;3.89;79.71
54900;BME280;40801;41.924;25.562;2023-01-28T06:06:59;99067.44;;;3.85;80.03
54900;BME280;40801;41.924;25.562;2023-01-28T06:09:24;99071.97;;;3.89;80.55
54900;BME280;40801;41.924;25.562;2023-01-28T06:11:49;99079.16;;;3.89;80.15
54900;BME280;40801;41.924;25.562;2023-01-28T06:14:15;99078.34;;;4.09;79.74
54900;BME280;40801;41.924;25.562;2023-01-28T06:16:40;99089.03;;;4.09;79.56
54900;BME280;40801;41.924;25.562;2023-01-28T06:19:06;99085.28;;;4.15;79.25
54900;BME280;40801;41.924;25.562;2023-01-28T06:21:31;99092.75;;;4.02;78.93
54900;BME280;40801;41.924;25.562;2023-01-28T06:23:57;99094.06;;;4.20;79.47
54900;BME280;40801;41.924;25.562;2023-01-28T06:26:22;99095.66;;;4.21;79.61
54900;BME280;40801;41.924;25.562;2023-01-28T06:28:48;99100.44;;;4.29;79.94
54900;BME280;40801;41.924;25.562;2023-01-28T06:31:14;99106.56;;;4.30;79.53
54900;BME280;40801;41.924;25.562;2023-01-28T06:33:39;99094.56;;;4.43;79.07
54900;BME280;40801;41.924;25.562;2023-01-28T06:36:05;99099.91;;;4.38;79.02
54900;BME280;40801;41.924;25.562;2023-01-28T06:38:31;99104.97;;;4.44;78.75
54900;BME280;40801;41.924;25.562;2023-01-28T06:40:57;99118.03;;;4.51;78.58
54900;BME280;40801;41.924;25.562;2023-01-28T06:43:23;99110.00;;;4.51;78.68
54900;BME280;40801;41.924;25.562;2023-01-28T06:45:55;99119.34;;;4.53;78.91
54900;BME280;40801;41.924;25.562;2023-01-28T06:48:21;99123.34;;;4.56;78.28
54900;BME280;40801;41.924;25.562;2023-01-28T06:50:47;99126.56;;;4.48;79.22
54900;BME280;40801;41.924;25.562;2023-01-28T06:53:13;99121.78;;;4.45;78.32
54900;BME280;40801;41.924;25.562;2023-01-28T06:55:38;99119.63;;;4.47;78.60
54900;BME280;40801;41.924;25.562;2023-01-28T06:58:04;99127.66;;;4.47;77.79
54900;BME280;40801;41.924;25.562;2023-01-28T07:00:29;99134.56;;;4.53;78.23
54900;BME280;40801;41.924;25.562;2023-01-28T07:02:55;99142.28;;;4.59;78.15
54900;BME280;40801;41.924;25.562;2023-01-28T07:05:23;99142.56;;;4.68;78.01
54900;BME280;40801;41.924;25.562;2023-01-28T07:07:49;99149.78;;;4.52;78.12
54900;BME280;40801;41.924;25.562;2023-01-28T07:10:14;99151.09;;;4.70;77.89
54900;BME280;40801;41.924;25.562;2023-01-28T07:12:40;99152.41;;;4.73;77.58
54900;BME280;40801;41.924;25.562;2023-01-28T07:15:06;99161.22;;;4.78;77.80
54900;BME280;40801;41.924;25.562;2023-01-28T07:17:32;99170.31;;;4.72;77.70
54900;BME280;40801;41.924;25.562;2023-01-28T07:19:57;99168.16;;;4.79;78.05
54900;BME280;40801;41.924;25.562;2023-01-28T07:22:23;99171.34;;;4.81;77.45
54900;BME280;40801;41.924;25.562;2023-01-28T07:24:48;99184.44;;;4.78;77.43
54900;BME280;40801;41.924;25.562;2023-01-28T07:27:14;99174.56;;;4.78;77.51
54900;BME280;40801;41.924;25.562;2023-01-28T07:29:39;99167.38;;;4.74;77.56
54900;BME280;40801;41.924;25.562;2023-01-28T07:32:04;99175.59;;;4.87;77.87
54900;BME280;40801;41.924;25.562;2023-01-28T07:34:32;99178.81;;;4.84;77.67
54900;BME280;40801;41.924;25.562;2023-01-28T07:36:57;99175.06;;;4.90;77.96
54900;BME280;40801;41.924;25.562;2023-01-28T07:39:23;99167.56;;;4.97;77.47
54900;BME280;40801;41.924;25.562;2023-01-28T07:41:48;99167.03;;;5.01;77.51
54900;BME280;40801;41.924;25.562;2023-01-28T07:44:14;99176.31;;;5.13;77.69
54900;BME280;40801;41.924;25.562;2023-01-28T07:46:39;99172.28;;;5.16;77.30
54900;BME280;40801;41.924;25.562;2023-01-28T07:49:05;99177.66;;;5.11;77.22
54900;BME280;40801;41.924;25.562;2023-01-28T07:51:30;99195.00;;;5.23;76.88
54900;BME280;40801;41.924;25.562;2023-01-28T07:53:56;99191.75;;;5.32;76.65
54900;BME280;40801;41.924;25.562;2023-01-28T07:56:21;99199.50;;;5.33;75.73
54900;BME280;40801;41.924;25.562;2023-01-28T07:58:50;99194.13;;;5.38;76.68
54900;BME280;40801;41.924;25.562;2023-01-28T08:01:15;99197.03;;;5.42;75.55
54900;BME280;40801;41.924;25.562;2023-01-28T08:03:42;99205.31;;;5.50;75.44
54900;BME280;40801;41.924;25.562;2023-01-28T08:06:07;99198.09;;;5.51;75.76
54900;BME280;40801;41.924;25.562;2023-01-28T08:08:33;99204.75;;;5.53;74.90
54900;BME280;40801;41.924;25.562;2023-01-28T08:11:05;99208.22;;;5.54;74.62
54900;BME280;40801;41.924;25.562;2023-01-28T08:13:33;99215.66;;;5.62;74.56
54900;BME280;40801;41.924;25.562;2023-01-28T08:15:58;99213.19;;;5.71;74.73
54900;BME280;40801;41.924;25.562;2023-01-28T08:18:24;99215.28;;;5.84;74.41
54900;BME280;40801;41.924;25.562;2023-01-28T08:20:54;99210.75;;;5.74;73.89
54900;BME280;40801;41.924;25.562;2023-01-28T08:23:19;99224.66;;;5.81;74.26
54900;BME280;40801;41.924;25.562;2023-01-28T08:25:46;99222.75;;;5.87;74.38
54900;BME280;40801;41.924;25.562;2023-01-28T08:28:12;99223.53;;;5.87;74.55
54900;BME280;40801;41.924;25.562;2023-01-28T08:30:38;99227.88;;;5.78;74.51
54900;BME280;40801;41.924;25.562;2023-01-28T08:33:05;99237.13;;;6.01;74.79
54900;BME280;40801;41.924;25.562;2023-01-28T08:35:31;99229.38;;;6.00;74.52
54900;BME280;40801;41.924;25.562;2023-01-28T08:37:59;99239.19;;;6.14;74.96
54900;BME280;40801;41.924;25.562;2023-01-28T08:40:25;99239.09;;;6.25;74.27
54900;BME280;40801;41.924;25.562;2023-01-28T08:42:51;99241.69;;;6.35;73.63
54900;BME280;40801;41.924;25.562;2023-01-28T08:45:18;99247.69;;;6.56;73.65
54900;BME280;40801;41.924;25.562;2023-01-28T08:47:50;99235.56;;;6.63;73.34
54900;BME280;40801;41.924;25.562;2023-01-28T08:50:17;99235.81;;;6.91;72.73
54900;BME280;40801;41.924;25.562;2023-01-28T08:52:43;99233.28;;;7.28;73.42
54900;BME280;40801;41.924;25.562;2023-01-28T08:55:10;99227.75;;;7.62;72.32
54900;BME280;40801;41.924;25.562;2023-01-28T08:57:36;99228.78;;;7.85;70.94
54900;BME280;40801;41.924;25.562;2023-01-28T09:00:03;99239.47;;;7.90;70.68
54900;BME280;40801;41.924;25.562;2023-01-28T09:02:29;99238.22;;;8.01;70.08
54900;BME280;40801;41.924;25.562;2023-01-28T09:04:54;99230.75;;;7.98;69.21
54900;BME280;40801;41.924;25.562;2023-01-28T09:07:20;99233.72;;;7.97;67.99
54900;BME280;40801;41.924;25.562;2023-01-28T09:09:45;99232.56;;;7.84;68.50
54900;BME280;40801;41.924;25.562;2023-01-28T09:12:10;99238.38;;;7.91;68.33
54900;BME280;40801;41.924;25.562;2023-01-28T09:14:36;99241.94;;;7.87;68.35
54900;BME280;40801;41.924;25.562;2023-01-28T09:17:03;99232.91;;;7.96;68.27
54900;BME280;40801;41.924;25.562;2023-01-28T09:19:29;99232.84;;;8.01;68.59
54900;BME280;40801;41.924;25.562;2023-01-28T09:21:54;99231.38;;;8.09;67.08
54900;BME280;40801;41.924;25.562;2023-01-28T09:24:19;99228.19;;;8.07;67.06
54900;BME280;40801;41.924;25.562;2023-01-28T09:26:48;99234.44;;;8.21;67.64
54900;BME280;40801;41.924;25.562;2023-01-28T09:29:13;99231.06;;;8.29;64.99
54900;BME280;40801;41.924;25.562;2023-01-28T09:31:39;99231.31;;;8.14;66.44
54900;BME280;40801;41.924;25.562;2023-01-28T09:34:05;99223.47;;;8.18;65.78
54900;BME280;40801;41.924;25.562;2023-01-28T09:36:30;99225.78;;;8.24;65.71
54900;BME280;40801;41.924;25.562;2023-01-28T09:38:57;99219.53;;;8.29;65.51
54900;BME280;40801;41.924;25.562;2023-01-28T09:41:28;99221.75;;;7.89;64.01
54900;BME280;40801;41.924;25.562;2023-01-28T09:46:51;99223.50;;;8.50;64.66
54900;BME280;40801;41.924;25.562;2023-01-28T09:51:55;99216.06;;;8.61;60.59
54900;BME280;40801;41.924;25.562;2023-01-28T09:57:16;99216.34;;;9.06;60.91
54900;BME280;40801;41.924;25.562;2023-01-28T09:59:42;99212.53;;;8.79;62.91
54900;BME280;40801;41.924;25.562;2023-01-28T10:10:21;99208.41;;;10.00;56.97
54900;BME280;40801;41.924;25.562;2023-01-28T10:16:14;99213.22;;;11.10;56.74
54900;BME280;40801;41.924;25.562;2023-01-28T10:19:00;99198.69;;;11.28;53.66
54900;BME280;40801;41.924;25.562;2023-01-28T10:21:40;99204.91;;;10.67;54.34
54900;BME280;40801;41.924;25.562;2023-01-28T10:24:16;99196.53;;;11.08;55.58
54900;BME280;40801;41.924;25.562;2023-01-28T10:26:43;99203.03;;;11.07;52.87
54900;BME280;40801;41.924;25.562;2023-01-28T10:29:12;99206.19;;;11.00;54.81
54900;BME280;40801;41.924;25.562;2023-01-28T10:31:44;99204.34;;;11.18;53.37
54900;BME280;40801;41.924;25.562;2023-01-28T10:34:11;99203.38;;;11.14;54.29
54900;BME280;40801;41.924;25.562;2023-01-28T10:36:37;99206.22;;;11.66;52.25
54900;BME280;40801;41.924;25.562;2023-01-28T10:39:02;99207.81;;;11.67;53.70
54900;BME280;40801;41.924;25.562;2023-01-28T10:41:28;99206.03;;;11.54;53.04
54900;BME280;40801;41.924;25.562;2023-01-28T10:43:55;99213.16;;;11.41;52.84
54900;BME280;40801;41.924;25.562;2023-01-28T10:46:25;99200.69;;;11.14;53.71
54900;BME280;40801;41.924;25.562;2023-01-28T10:51:29;99222.38;;;10.69;52.94
54900;BME280;40801;41.924;25.562;2023-01-28T10:53:54;99209.25;;;10.45;54.31
54900;BME280;40801;41.924;25.562;2023-01-28T10:56:31;99211.16;;;10.45;53.37
54900;BME280;40801;41.924;25.562;2023-01-28T10:59:04;99210.53;;;10.26;55.19
54900;BME280;40801;41.924;25.562;2023-01-28T11:04:05;99206.44;;;10.28;55.78
54900;BME280;40801;41.924;25.562;2023-01-28T11:06:30;99209.78;;;10.34;55.84
54900;BME280;40801;41.924;25.562;2023-01-28T11:08:56;99203.06;;;10.22;55.47
54900;BME280;40801;41.924;25.562;2023-01-28T11:11:25;99204.28;;;10.39;55.40
54900;BME280;40801;41.924;25.562;2023-01-28T11:13:52;99208.66;;;10.79;54.84
54900;BME280;40801;41.924;25.562;2023-01-28T11:16:19;99202.66;;;10.91;54.65
54900;BME280;40801;41.924;25.562;2023-01-28T11:21:25;99193.78;;;10.60;53.42
54900;BME280;40801;41.924;25.562;2023-01-28T11:26:29;99185.69;;;11.39;53.96
54900;BME280;40801;41.924;25.562;2023-01-28T11:28:57;99193.72;;;11.87;52.51
54900;BME280;40801;41.924;25.562;2023-01-28T11:31:23;99200.84;;;11.83;52.23
54900;BME280;40801;41.924;25.562;2023-01-28T11:36:24;99196.53;;;11.65;50.95
54900;BME280;40801;41.924;25.562;2023-01-28T11:38:57;99192.91;;;12.21;50.66
54900;BME280;40801;41.924;25.562;2023-01-28T11:43:53;99201.78;;;12.94;49.18
54900;BME280;40801;41.924;25.562;2023-01-28T11:51:41;99196.03;;;11.63;48.11
54900;BME280;40801;41.924;25.562;2023-01-28T12:02:19;99204.34;;;10.78;50.34
54900;BME280;40801;41.924;25.562;2023-01-28T12:08:25;99210.53;;;10.79;50.93
54900;BME280;40801;41.924;25.562;2023-01-28T12:16:14;99215.66;;;10.36;50.37
54900;BME280;40801;41.924;25.562;2023-01-28T12:19:17;99211.31;;;10.26;50.88
54900;BME280;40801;41.924;25.562;2023-01-28T12:32:52;99214.59;;;9.51;52.79
54900;BME280;40801;41.924;25.562;2023-01-28T12:46:05;99222.63;;;10.59;51.07
54900;BME280;40801;41.924;25.562;2023-01-28T12:48:48;99228.59;;;11.01;49.81
54900;BME280;40801;41.924;25.562;2023-01-28T12:51:19;99226.94;;;10.60;49.75
54900;BME280;40801;41.924;25.562;2023-01-28T12:54:09;99232.72;;;10.45;49.31
54900;BME280;40801;41.924;25.562;2023-01-28T12:56:45;99226.88;;;10.51;49.77
54900;BME280;40801;41.924;25.562;2023-01-28T12:59:57;99232.09;;;10.48;49.23
54900;BME280;40801;41.924;25.562;2023-01-28T13:02:25;99236.75;;;10.34;50.62
54900;BME280;40801;41.924;25.562;2023-01-28T13:10:26;99249.47;;;10.19;50.80
54900;BME280;40801;41.924;25.562;2023-01-28T13:12:53;99248.88;;;9.86;51.25
54900;BME280;40801;41.924;25.562;2023-01-28T13:15:20;99254.19;;;10.00;51.50
54900;BME280;40801;41.924;25.562;2023-01-28T13:18:01;99255.72;;;9.92;51.73
54900;BME280;40801;41.924;25.562;2023-01-28T13:20:46;99257.66;;;9.65;53.27
54900;BME280;40801;41.924;25.562;2023-01-28T13:23:36;99263.25;;;9.41;54.32
54900;BME280;40801;41.924;25.562;2023-01-28T13:28:42;99261.69;;;9.40;54.55
54900;BME280;40801;41.924;25.562;2023-01-28T13:31:10;99272.94;;;9.28;54.29
54900;BME280;40801;41.924;25.562;2023-01-28T13:33:44;99269.38;;;8.86;54.44
54900;BME280;40801;41.924;25.562;2023-01-28T13:38:42;99277.94;;;8.75;54.44
54900;BME280;40801;41.924;25.562;2023-01-28T13:41:08;99275.19;;;8.61;55.16
54900;BME280;40801;41.924;25.562;2023-01-28T13:43:37;99285.53;;;8.54;55.76
54900;BME280;40801;41.924;25.562;2023-01-28T13:46:26;99293.38;;;8.50;56.67
54900;BME280;40801;41.924;25.562;2023-01-28T13:48:55;99288.31;;;8.49;55.99
54900;BME280;40801;41.924;25.562;2023-01-28T13:54:10;99292.78;;;8.53;57.25
54900;BME280;40801;41.924;25.562;2023-01-28T13:56:54;99293.97;;;8.47;57.02
54900;BME280;40801;41.924;25.562;2023-01-28T13:59:36;99300.22;;;8.43;57.09
54900;BME280;40801;41.924;25.562;2023-01-28T14:15:57;99308.72;;;8.12;59.85
54900;BME280;40801;41.924;25.562;2023-01-28T14:18:39;99308.72;;;8.12;58.16
54900;BME280;40801;41.924;25.562;2023-01-28T14:21:11;99318.25;;;7.81;58.26
54900;BME280;40801;41.924;25.562;2023-01-28T14:23:38;99323.78;;;7.89;59.39
54900;BME280;40801;41.924;25.562;2023-01-28T14:36:35;99339.16;;;7.60;60.35
54900;BME280;40801;41.924;25.562;2023-01-28T14:39:01;99343.31;;;7.71;60.21
54900;BME280;40801;41.924;25.562;2023-01-28T14:41:27;99338.66;;;7.58;60.25
54900;BME280;40801;41.924;25.562;2023-01-28T14:43:56;99346.56;;;7.68;60.58
54900;BME280;40801;41.924;25.562;2023-01-28T14:46:42;99344.81;;;7.58;59.87
54900;BME280;40801;41.924;25.562;2023-01-28T14:57:15;99371.91;;;7.33;59.95
54900;BME280;40801;41.924;25.562;2023-01-28T14:59:54;99364.38;;;7.35;59.71
54900;BME280;40801;41.924;25.562;2023-01-28T15:02:25;99367.06;;;7.06;59.78
54900;BME280;40801;41.924;25.562;2023-01-28T15:04:51;99375.63;;;7.08;60.07
54900;BME280;40801;41.924;25.562;2023-01-28T15:07:26;99374.13;;;6.58;61.99
54900;BME280;40801;41.924;25.562;2023-01-28T15:10:03;99377.16;;;6.46;62.27
54900;BME280;40801;41.924;25.562;2023-01-28T15:12:34;99382.16;;;6.58;62.10
54900;BME280;40801;41.924;25.562;2023-01-28T15:15:20;99385.31;;;6.70;61.96
54900;BME280;40801;41.924;25.562;2023-01-28T15:17:48;99383.72;;;6.69;61.91
54900;BME280;40801;41.924;25.562;2023-01-28T15:20:19;99394.16;;;6.70;62.39
54900;BME280;40801;41.924;25.562;2023-01-28T15:22:45;99391.56;;;6.55;62.92
54900;BME280;40801;41.924;25.562;2023-01-28T15:25:19;99394.19;;;6.65;62.42
54900;BME280;40801;41.924;25.562;2023-01-28T15:27:46;99399.78;;;6.64;62.71
54900;BME280;40801;41.924;25.562;2023-01-28T15:30:23;99387.66;;;6.76;62.86
54900;BME280;40801;41.924;25.562;2023-01-28T15:33:04;99400.88;;;6.68;63.06
54900;BME280;40801;41.924;25.562;2023-01-28T15:35:30;99415.19;;;6.48;62.74